Milliken, CO (80543)

1:09 AM MDT on October 21, 2014 (GMT -0600)
Mad Russian | Change Station
CLOSE
Current Station
Personal Weather Station
Location: Milliken, CO
Elevation: 4882 ft
Nearby Weather Stations

Elev 4882 ft 40.35 °N, 104.87 °W | Updated 4 seconds ago

Clear
Clear
48.9 °F
Feels Like 46 °F
N
6.0
Wind Variable Wind from WNW
Gusts 10.0 mph

Today
High -- | Low -- °F
--% Chance of Precip.
Yesterday
High -- | Low -- °F
Precip. -- in
7:16 AM 6:10 PM
Waning Crescent, 7% visible
Pressure 30.05 in
Visibility 10.0 miles
Clouds Clear
Windchill 46 °F
Dew Point 40 °F
Humidity 72%
Rainfall 0.00 in
Snow Depth Not available.
UV 0.0 out of 12
Pollen 2.90 out of 12
Ozone Good
PM2.5 Good
Flu Activity Sporadic
METAR KFNL 210655Z AUTO 34006KT 10SM CLR 08/03 A3005 RMK AO1

More Conditions Fewer Conditions

Pressure 30.05 in
Visibility 10.0 miles
Clouds Clear
Windchill 46 °F
Dew Point 40 °F
Humidity 72%
Rainfall 0.00 in
Snow Depth Not available.
UV 0.0 out of 12
Pollen 2.90 out of 12
Ozone Good
PM2.5 Good
Flu Activity Sporadic
METAR KFNL 210655Z AUTO 34006KT 10SM CLR 08/03 A3005 RMK AO1

More Conditions Fewer Conditions

10-Day Weather Forecast

Almanac

Astronomy

Oct. 21, 2014 Rise Set
Actual Time 7:16 AM MDT 6:10 PM MDT
Civil Twilight 6:49 AM MDT 6:38 PM MDT
Nautical Twilight 6:17 AM MDT 7:09 PM MDT
Astronomical Twilight 5:45 AM MDT 7:41 PM MDT
Moon 5:03 AM MDT 5:06 PM MDT
Length of Visible Light 11h 49m
Length of Day
10h 53m
Tomorrow will be 2m 30s shorter.
Waning Crescent, 7% of the Moon is Illuminated
Today
Waning Crescent
Oct 23
New
Oct 30
First Quarter
Nov 6
Full
Nov 14
Last Quarter

Today's Extremes

State Highs State Lows

Community

WunderPhotos

Upload Photos

1,763,619 photos uploaded!

Nearby

Air Quality

  Air Quality AQ Index Pollutant
Yesterday Good
OZONE
Current Good
PM2.5
Current Good
OZONE
Monday Good
PM2.5
Monday Good
OZONE
Tuesday Good
PM2.5
Tuesday Good
OZONE

Snow Depth

Station Depth Elevation
Copeland Lake 0 in 8600 ft
Wild Basin 0 in 9560 ft
Bear Lake 0 in 9500 ft
Deadman Hill 0 in 10220 ft
Berthoud Summit 0 in 11300 ft

Earthquake Activity

City Distance Mag. Time & Date
No recent earthquake activity has been reported nearby.
Minimum magnitude displayed is 2.5.

Coastal Water Temperatures

Place Temperature
No Stations Reporting

Nearby Weather Stations